Time;durP1;ratioP1;P1;durP2;ratioP2;P2;SDS_P1;SDS_P2;PMS_P1;PMS_P2;Temp;Humidity;BMP_temperature;BMP_pressure;BME280_temperature;BME280_humidity;BME280_pressure;Samples;Min_cycle;Max_cycle;Signal;HPM_P1;HPM_P2
2022/09/15 00:01:09;169699.00;0.57;293.75;0.00;0.00;0.62;;;;;22.50;3.90;;;;;;2272083;61;1380;-87
2022/09/15 00:03:36;293034.00;0.98;505.95;0.00;0.00;0.62;;;;;22.50;3.40;;;;;;2271709;61;908;-86
2022/09/15 00:06:03;250970.00;0.84;433.62;0.00;0.00;0.62;;;;;22.50;3.10;;;;;;2272075;61;2005;-85
2022/09/15 00:08:30;199823.00;0.67;345.62;0.00;0.00;0.62;;;;;22.50;3.70;;;;;;2272101;61;1103;-84
2022/09/15 00:11:05;262384.00;0.87;453.25;0.00;0.00;0.62;;;;;22.30;4.50;;;;;;2272049;61;1266;-85
2022/09/15 00:13:34;186507.00;0.62;322.69;48699.00;0.16;84.94;;;;;22.20;5.00;;;;;;2272543;61;2185;-85
2022/09/15 00:16:01;307240.00;1.02;530.37;0.00;0.00;0.62;;;;;22.20;3.10;;;;;;2272682;61;1043;-85
2022/09/15 00:18:28;434796.00;1.45;749.63;56160.00;0.19;97.84;;;;;22.40;3.80;;;;;;2272736;61;1203;-85
2022/09/15 00:20:55;292332.00;0.97;504.74;0.00;0.00;0.62;;;;;22.20;4.40;;;;;;2272803;61;1398;-86
2022/09/15 00:23:22;343305.00;1.14;592.35;39602.00;0.13;69.20;;;;;22.30;4.40;;;;;;2272683;61;1103;-86
2022/09/15 00:25:52;265790.00;0.89;459.10;0.00;0.00;0.62;;;;;22.30;4.00;;;;;;2272712;61;1925;-86
2022/09/15 00:28:20;202993.00;0.68;351.08;0.00;0.00;0.62;;;;;22.50;3.90;;;;;;2272648;61;1148;-84
2022/09/15 00:30:51;461696.00;1.54;795.90;0.00;0.00;0.62;;;;;22.60;4.50;;;;;;2272631;61;1391;-86
2022/09/15 00:33:19;256866.00;0.86;443.76;0.00;0.00;0.62;;;;;22.60;2.60;;;;;;2272831;61;905;-87
2022/09/15 00:35:48;261699.00;0.87;452.07;0.00;0.00;0.62;;;;;22.60;1.90;;;;;;2272720;61;1223;-85
2022/09/15 00:38:17;519512.00;1.73;895.42;0.00;0.00;0.62;;;;;22.70;1.40;;;;;;2272490;61;1118;-86
2022/09/15 00:40:46;162341.00;0.54;281.07;0.00;0.00;0.62;;;;;22.70;1.00;;;;;;2272615;61;1629;-88
2022/09/15 00:43:14;187835.00;0.63;324.98;0.00;0.00;0.62;;;;;22.80;1.00;;;;;;2272729;61;1080;-86
2022/09/15 00:45:41;199498.00;0.66;345.06;0.00;0.00;0.62;;;;;22.70;1.00;;;;;;2272684;61;1916;-86
2022/09/15 00:48:14;333649.00;1.11;575.76;0.00;0.00;0.62;;;;;22.90;1.00;;;;;;2272640;61;1104;-86
2022/09/15 00:50:46;413824.00;1.38;713.57;491.00;0.00;1.47;;;;;22.90;1.00;;;;;;2272515;61;1509;-86
2022/09/15 00:53:15;251138.00;0.84;433.91;0.00;0.00;0.62;;;;;23.00;1.00;;;;;;2272685;61;1124;-88
2022/09/15 00:55:46;289334.00;0.96;499.58;57017.00;0.19;99.32;;;;;23.10;1.00;;;;;;2272635;61;1184;-86
2022/09/15 00:58:19;422220.00;1.41;728.01;0.00;0.00;0.62;;;;;23.20;1.00;;;;;;2272672;61;1817;-87
2022/09/15 01:00:54;259326.00;0.86;447.99;0.00;0.00;0.62;;;;;23.00;1.00;;;;;;2272667;61;1468;-86
2022/09/15 01:03:23;228103.00;0.76;394.29;0.00;0.00;0.62;;;;;23.00;1.00;;;;;;2272604;61;1078;-85
2022/09/15 01:05:56;447360.00;1.49;771.24;0.00;0.00;0.62;;;;;23.00;1.00;;;;;;2272506;61;2002;-85
2022/09/15 01:08:29;320211.00;1.07;552.66;0.00;0.00;0.62;;;;;23.00;1.00;;;;;;2272593;61;1103;-86
2022/09/15 01:10:56;366385.00;1.22;632.02;0.00;0.00;0.62;;;;;22.90;1.00;;;;;;2272519;61;1340;-86
2022/09/15 01:13:23;375367.00;1.25;647.46;46343.00;0.15;80.86;;;;;22.90;1.00;;;;;;2272451;61;1159;-86
2022/09/15 01:16:01;309529.00;1.03;534.30;0.00;0.00;0.62;;;;;22.90;1.00;;;;;;2272523;61;1084;-87
2022/09/15 01:18:37;272229.00;0.91;470.18;0.00;0.00;0.62;;;;;22.50;1.00;;;;;;2272634;61;980;-87
2022/09/15 01:21:18;608927.00;2.03;1049.64;65212.00;0.22;113.49;;;;;22.40;1.00;;;;;;2272597;61;1625;-86
2022/09/15 01:24:06;110248.00;0.37;191.26;0.00;0.00;0.62;;;;;22.30;1.00;;;;;;2272479;61;1144;-87
2022/09/15 01:27:01;331214.00;1.10;571.57;52156.00;0.17;90.91;;;;;21.90;2.40;;;;;;2272501;61;2018;-87
2022/09/15 01:30:02;345573.00;1.15;596.25;0.00;0.00;0.62;;;;;21.90;2.60;;;;;;2272576;61;940;-86
2022/09/15 01:35:32;450846.00;1.50;777.24;50016.00;0.17;87.21;;;;;22.20;1.50;;;;;;2272592;61;640;-85
2022/09/15 01:38:06;354569.00;1.18;611.71;28916.00;0.10;50.71;;;;;22.40;1.00;;;;;;2272655;61;1118;-86
2022/09/15 01:40:40;753659.00;2.51;1300.42;100125.00;0.33;173.79;;;;;22.50;1.00;;;;;;2272422;61;1379;-85
2022/09/15 01:43:11;627211.00;2.09;1081.23;56702.00;0.19;98.78;;;;;22.50;1.00;;;;;;2272375;61;1678;-87
2022/09/15 01:45:44;438034.00;1.46;755.20;73442.00;0.24;127.71;;;;;22.40;1.00;;;;;;2272438;61;1919;-87
2022/09/15 01:48:12;554235.00;1.85;955.26;60284.00;0.20;104.97;;;;;22.40;1.00;;;;;;2272537;61;1615;-86
2022/09/15 01:50:51;475013.00;1.58;818.82;61270.00;0.20;106.67;;;;;22.40;1.00;;;;;;2272475;61;1290;-87
2022/09/15 01:53:21;653339.00;2.18;1126.41;129769.00;0.43;224.93;;;;;22.50;1.00;;;;;;2272413;61;1113;-87
2022/09/15 01:55:54;901022.00;3.00;1557.92;128684.00;0.43;223.06;;;;;22.60;1.00;;;;;;2272438;61;1219;-87
2022/09/15 01:58:21;1120476.00;3.73;1947.08;193036.00;0.64;333.94;;;;;22.70;1.00;;;;;;2272590;61;1083;-87
2022/09/15 02:00:54;907532.00;3.03;1569.35;77494.00;0.26;134.71;;;;;22.70;1.00;;;;;;2272449;61;1406;-86
2022/09/15 02:03:26;790390.00;2.63;1364.37;83621.00;0.28;145.29;;;;;22.60;1.00;;;;;;2272433;61;1037;-88
2022/09/15 02:06:01;643953.00;2.15;1110.18;57554.00;0.19;100.25;;;;;22.40;1.00;;;;;;2272329;61;1915;-86
2022/09/15 02:08:37;940346.00;3.13;1627.09;66740.00;0.22;116.13;;;;;22.20;1.00;;;;;;2272536;61;1125;-87
2022/09/15 02:11:13;818373.00;2.73;1413.19;48011.00;0.16;83.75;;;;;22.20;1.00;;;;;;2272459;61;1357;-86
2022/09/15 02:13:50;703907.00;2.35;1214.01;27064.00;0.09;47.50;;;;;21.80;1.00;;;;;;2272524;61;1042;-88
2022/09/15 02:16:21;943768.00;3.15;1633.12;68925.00;0.23;119.90;;;;;21.80;1.10;;;;;;2272361;61;1133;-87
2022/09/15 02:19:10;983353.00;3.28;1703.01;108336.00;0.36;187.96;;;;;21.90;1.10;;;;;;2272385;61;1604;-86
2022/09/15 02:21:52;863478.00;2.88;1492.06;48339.00;0.16;84.31;;;;;21.70;1.00;;;;;;2272450;61;1545;-86
2022/09/15 02:24:28;254239.00;0.85;439.24;377.00;0.00;1.27;;;;;21.80;1.00;;;;;;2272347;61;1058;-87
2022/09/15 02:26:56;407776.00;1.36;703.17;32763.00;0.11;57.37;;;;;21.70;1.00;;;;;;2272388;61;2013;-86
2022/09/15 02:29:28;423029.00;1.41;729.40;73757.00;0.25;128.25;;;;;21.70;1.00;;;;;;2272327;61;1073;-85
2022/09/15 02:32:01;633474.00;2.11;1092.05;70493.00;0.23;122.61;;;;;21.60;1.00;;;;;;2272181;61;1776;-85
2022/09/15 02:34:34;393957.00;1.31;679.42;49662.00;0.17;86.60;;;;;21.60;1.30;;;;;;2272335;61;1121;-86
2022/09/15 02:37:03;368739.00;1.23;636.07;4655.00;0.02;8.69;;;;;21.80;1.20;;;;;;2272390;61;1608;-83
2022/09/15 02:39:35;348913.00;1.16;601.99;66585.00;0.22;115.86;;;;;21.80;1.00;;;;;;2272317;61;1581;-86
2022/09/15 02:42:03;368063.00;1.23;634.91;71581.00;0.24;124.49;;;;;22.10;1.00;;;;;;2272273;61;1655;-87
2022/09/15 02:44:30;412631.00;1.38;711.52;85686.00;0.29;148.86;;;;;22.20;1.00;;;;;;2272355;61;1556;-87
2022/09/15 02:47:00;412666.00;1.38;711.58;36956.00;0.12;64.62;;;;;22.40;1.00;;;;;;2272373;61;2021;-87
2022/09/15 02:49:28;642117.00;2.14;1107.00;28853.00;0.10;50.60;;;;;22.40;1.00;;;;;;2272300;61;1642;-87
2022/09/15 02:51:55;342451.00;1.14;590.89;105097.00;0.35;182.37;;;;;22.60;1.00;;;;;;2272105;61;1366;-86
2022/09/15 02:54:22;363655.00;1.21;627.33;33662.00;0.11;58.92;;;;;22.60;1.00;;;;;;2272394;61;916;-84
2022/09/15 02:56:49;261858.00;0.87;452.34;68352.00;0.23;118.91;;;;;22.50;1.00;;;;;;2272268;61;1178;-87
2022/09/15 02:59:16;256330.00;0.85;442.84;70522.00;0.24;122.66;;;;;22.40;1.00;;;;;;2272397;61;1196;-85
2022/09/15 03:01:43;368934.00;1.23;636.40;61003.00;0.20;106.21;;;;;22.40;1.00;;;;;;2272191;61;1435;-85
2022/09/15 03:04:12;855644.00;2.85;1478.35;138559.00;0.46;240.09;;;;;22.50;1.00;;;;;;2272265;61;1218;-86
2022/09/15 03:06:39;443540.00;1.48;764.67;75730.00;0.25;131.66;;;;;22.40;1.00;;;;;;2272165;61;2012;-87
2022/09/15 03:09:08;352032.00;1.17;607.35;47887.00;0.16;83.53;;;;;22.50;1.00;;;;;;2272231;61;1194;-85
2022/09/15 03:11:36;493702.00;1.65;850.98;74721.00;0.25;129.92;;;;;22.50;1.00;;;;;;2271957;61;1280;-86
2022/09/15 03:14:07;537093.00;1.79;925.71;60603.00;0.20;105.52;;;;;22.70;1.00;;;;;;2272395;61;1872;-86
2022/09/15 03:16:35;878669.00;2.93;1518.69;30908.00;0.10;54.15;;;;;22.70;1.00;;;;;;2272219;61;1652;-85
2022/09/15 03:19:03;345560.00;1.15;596.23;46685.00;0.16;81.45;;;;;22.80;1.00;;;;;;2272183;61;1378;-84
2022/09/15 03:24:05;1540813.00;5.14;2720.15;51890.00;0.17;90.45;;;;;22.60;1.00;;;;;;2273829;61;1416;-86
2022/09/15 03:26:32;349015.00;1.16;602.17;0.00;0.00;0.62;;;;;22.60;1.00;;;;;;2272215;61;2002;-85
2022/09/15 03:31:27;1550060.00;5.17;2737.68;32690.00;0.11;57.24;;;;;22.60;1.00;;;;;;2273983;61;1409;-84
2022/09/15 03:33:55;398346.00;1.33;686.96;62753.00;0.21;109.24;;;;;22.60;1.00;;;;;;2272127;61;1694;-85
2022/09/15 03:36:22;345899.00;1.15;596.81;0.00;0.00;0.62;;;;;22.70;1.00;;;;;;2272303;61;1167;-87
2022/09/15 03:38:49;470889.00;1.57;811.72;99419.00;0.33;172.57;;;;;22.70;1.00;;;;;;2272129;61;1625;-85
2022/09/15 03:41:19;502677.00;1.68;866.43;92907.00;0.31;161.33;;;;;22.50;1.00;;;;;;2271997;61;1503;-84
2022/09/15 03:43:46;477918.00;1.59;823.81;0.00;0.00;0.62;;;;;22.50;1.00;;;;;;2272057;61;1618;-85
2022/09/15 03:46:13;299958.00;1.00;517.85;0.00;0.00;0.62;;;;;22.30;1.00;;;;;;2272261;61;2001;-85
2022/09/15 03:48:40;441836.00;1.47;761.74;0.00;0.00;0.62;;;;;22.50;1.00;;;;;;2273003;61;1023;-86
2022/09/15 03:51:09;453841.00;1.51;782.39;48012.00;0.16;83.75;;;;;22.50;1.00;;;;;;2272768;61;1768;-84
2022/09/15 03:53:38;409960.00;1.37;706.93;74621.00;0.25;129.74;;;;;22.50;1.00;;;;;;2272871;61;2297;-84
2022/09/15 03:56:10;559970.00;1.87;965.15;83391.00;0.28;144.89;;;;;22.40;1.00;;;;;;2272911;61;1134;-86
2022/09/15 03:58:39;464030.00;1.55;799.92;83625.00;0.28;145.30;;;;;22.20;1.00;;;;;;2272890;61;1525;-85
2022/09/15 04:01:05;383365.00;1.28;661.21;0.00;0.00;0.62;;;;;22.20;1.00;;;;;;2272716;61;1284;-86
2022/09/15 04:03:33;315978.00;1.05;545.38;27715.00;0.09;48.63;;;;;22.20;1.00;;;;;;2272826;61;1163;-84
2022/09/15 04:06:00;549053.00;1.83;946.33;51825.00;0.17;90.34;;;;;22.30;1.00;;;;;;2272800;61;1992;-85
2022/09/15 04:08:27;394112.00;1.31;679.68;0.00;0.00;0.62;;;;;22.30;1.00;;;;;;2272862;61;1605;-84
2022/09/15 04:10:54;481822.00;1.61;830.53;60181.00;0.20;104.79;;;;;22.40;1.00;;;;;;2272624;61;1317;-87
2022/09/15 04:13:21;537928.00;1.79;927.15;74412.00;0.25;129.38;;;;;22.40;1.00;;;;;;2272747;61;1725;-86
2022/09/15 04:15:58;356407.00;1.19;614.87;37064.00;0.12;64.81;;;;;22.40;1.00;;;;;;2272814;61;999;-85
2022/09/15 04:18:25;533743.00;1.78;919.94;76556.00;0.26;133.09;;;;;22.30;1.00;;;;;;2272722;61;1729;-85
2022/09/15 04:20:52;608272.00;2.03;1048.51;65969.00;0.22;114.79;;;;;22.40;1.00;;;;;;2272575;61;1275;-85
2022/09/15 04:36:07;2248600.00;7.50;4147.91;114338.00;0.38;198.31;;;;;22.40;1.00;;;;;;1201612;40;3415;-90
2022/09/15 04:43:41;483298.00;1.61;833.07;20948.00;0.07;36.91;;;;;22.20;1.00;;;;;;2279939;56;1758;-89
2022/09/15 04:58:53;558080.00;1.86;961.89;35350.00;0.12;61.84;;;;;21.50;1.40;;;;;;2279860;56;1694;-89
2022/09/15 05:11:31;126046048.00;420.15;81133864.00;137029.00;0.46;237.45;;;;;21.60;1.00;;;;;;2278307;55;3618;-88
2022/09/15 05:14:05;896679.00;2.99;1550.29;90655.00;0.30;157.44;;;;;21.40;1.00;;;;;;2286410;55;3809;-89
2022/09/15 05:16:32;793815.00;2.65;1370.34;138367.00;0.46;239.76;;;;;21.50;1.00;;;;;;2378391;41;3692;-87
2022/09/15 05:21:36;607898.00;2.03;1047.86;73276.00;0.24;127.42;;;;;21.00;1.70;;;;;;2441100;41;2078;-88
2022/09/15 05:36:59;676450.00;2.25;1166.42;90445.00;0.30;157.08;;;;;20.80;5.00;;;;;;2303350;56;1536;-88
2022/09/15 05:41:55;1142649.00;3.81;1986.87;0.00;0.00;0.62;;;;;20.20;7.90;;;;;;2274582;61;1332;-87
2022/09/15 05:44:22;492987.00;1.64;849.75;0.00;0.00;0.62;;;;;19.90;9.70;;;;;;2272483;61;1111;-86
2022/09/15 05:46:51;715239.00;2.38;1233.67;232020.00;0.77;401.02;;;;;19.70;10.80;;;;;;2272342;61;2002;-87
2022/09/15 05:49:18;333899.00;1.11;576.19;0.00;0.00;0.62;;;;;19.80;11.80;;;;;;2272477;61;1542;-89
2022/09/15 05:54:15;1666046.00;5.55;2959.64;0.00;0.00;0.62;;;;;20.00;10.60;;;;;;2270151;61;1392;-88
2022/09/15 05:56:42;596186.00;1.99;1027.63;22945.00;0.08;40.37;;;;;19.90;11.70;;;;;;2268453;61;1615;-86
2022/09/15 05:59:09;347557.00;1.16;599.66;0.00;0.00;0.62;;;;;19.70;12.10;;;;;;2268398;61;1033;-87
2022/09/15 06:01:36;225561.00;0.75;389.91;0.00;0.00;0.62;;;;;19.80;12.10;;;;;;2268500;61;1300;-87
2022/09/15 06:04:03;104755.00;0.35;181.78;0.00;0.00;0.62;;;;;19.80;12.40;;;;;;2268361;61;1558;-87
2022/09/15 06:06:32;207679.00;0.69;359.14;0.00;0.00;0.62;;;;;19.90;12.40;;;;;;2268082;61;2000;-87
2022/09/15 08:21:28;1482079.00;4.94;2609.44;71348.00;0.24;124.09;;;;;21.50;8.60;;;;;;2270393;61;1344;-92
2022/09/15 08:29:20;1728761.00;5.76;3081.44;83682.00;0.28;145.40;;;;;21.70;6.00;;;;;;2502346;55;3566;31
2022/09/15 09:25:05;2217565.00;7.39;4081.05;0.00;0.00;0.62;;;;;21.70;6.60;;;;;;1590834;40;3412;-89
2022/09/15 09:35:13;1752930.00;5.84;3128.74;50459.00;0.17;87.98;;;;;22.00;5.20;;;;;;2275062;61;1329;-89
2022/09/15 09:47:47;1071029.00;3.57;1858.69;0.00;0.00;0.62;;;;;23.10;1.00;;;;;;1976960;56;3549;-88
2022/09/15 09:50:34;264474.00;0.88;456.84;0.00;0.00;0.62;;;;;22.70;2.30;;;;;;2264263;61;1389;-86
2022/09/15 09:53:27;354522.00;1.18;611.63;0.00;0.00;0.62;;;;;22.60;1.90;;;;;;2260460;61;1727;-89
2022/09/15 09:56:14;119498.00;0.40;207.22;0.00;0.00;0.62;;;;;22.70;2.50;;;;;;2260425;61;1449;-87
2022/09/15 09:58:41;203685.00;0.68;352.27;0.00;0.00;0.62;;;;;22.90;1.00;;;;;;2260477;61;919;-87
2022/09/15 10:01:11;246061.00;0.82;425.18;116689.00;0.39;202.37;;;;;23.00;1.00;;;;;;2260372;61;1331;-89
2022/09/15 10:03:42;231311.00;0.77;399.80;53652.00;0.18;93.50;;;;;23.20;1.00;;;;;;2260398;61;1457;-89
2022/09/15 10:06:15;137182.00;0.46;237.71;0.00;0.00;0.62;;;;;23.10;1.00;;;;;;2260335;61;2006;-87
2022/09/15 10:08:55;164707.00;0.55;285.15;12732.00;0.04;22.68;;;;;23.00;1.00;;;;;;2260490;61;1022;-89
2022/09/15 10:11:38;231185.00;0.77;399.59;0.00;0.00;0.62;;;;;23.60;1.00;;;;;;2260295;61;1474;-89
2022/09/15 10:14:06;182155.00;0.61;315.20;17894.00;0.06;31.62;;;;;24.00;1.00;;;;;;2260368;61;1044;-87
2022/09/15 10:16:33;0.00;0.00;0.62;0.00;0.00;0.62;;;;;24.20;1.00;;;;;;2260409;61;1026;-85
2022/09/15 10:19:01;192583.00;0.64;333.16;0.00;0.00;0.62;;;;;24.50;1.00;;;;;;2260253;61;1561;-87
2022/09/15 10:21:28;93804.00;0.31;162.88;0.00;0.00;0.62;;;;;24.50;1.00;;;;;;2260354;61;1496;-87
2022/09/15 10:23:55;221142.00;0.74;382.31;0.00;0.00;0.62;;;;;24.00;1.00;;;;;;2260272;61;1847;-87
2022/09/15 10:26:32;221386.00;0.74;382.73;0.00;0.00;0.62;;;;;24.00;1.00;;;;;;2260254;61;1997;-87
2022/09/15 10:29:20;117415.00;0.39;203.62;0.00;0.00;0.62;;;;;24.30;1.00;;;;;;2260407;61;1022;-86
2022/09/15 10:31:47;161722.00;0.54;280.01;0.00;0.00;0.62;;;;;24.50;1.00;;;;;;2259371;61;2252;-86
2022/09/15 10:34:29;217366.00;0.72;375.81;0.00;0.00;0.62;;;;;23.70;1.00;;;;;;2260242;61;1372;-86
2022/09/15 10:37:07;236045.00;0.79;407.95;45438.00;0.15;79.30;;;;;23.60;1.00;;;;;;2260378;61;921;-87
2022/09/15 10:39:48;165130.00;0.55;285.88;0.00;0.00;0.62;;;;;24.00;1.00;;;;;;2260323;61;1074;-87
2022/09/15 10:42:25;120620.00;0.40;209.15;0.00;0.00;0.62;;;;;24.00;1.00;;;;;;2260336;61;1461;-88
2022/09/15 10:45:06;111731.00;0.37;193.82;0.00;0.00;0.62;;;;;24.50;1.00;;;;;;2260386;61;1170;-87
2022/09/15 10:47:49;0.00;0.00;0.62;0.00;0.00;0.62;;;;;24.40;1.00;;;;;;2260299;61;1908;-88
2022/09/15 10:50:27;12408.00;0.04;22.12;0.00;0.00;0.62;;;;;24.30;1.00;;;;;;2260264;61;1341;-88
2022/09/15 10:53:08;90941.00;0.30;157.93;0.00;0.00;0.62;;;;;24.00;1.00;;;;;;2260319;61;1428;-88
2022/09/15 10:55:49;113721.00;0.38;197.25;0.00;0.00;0.62;;;;;24.20;1.00;;;;;;2260263;61;1212;-89
2022/09/15 10:58:46;24118.00;0.08;42.40;0.00;0.00;0.62;;;;;24.20;1.00;;;;;;2260320;61;1085;-88
2022/09/15 11:01:35;117173.00;0.39;203.21;0.00;0.00;0.62;;;;;24.60;1.00;;;;;;2260301;61;1339;-87
2022/09/15 11:04:32;197463.00;0.66;341.56;0.00;0.00;0.62;;;;;24.60;1.00;;;;;;2260202;61;1558;-87
2022/09/15 11:07:11;135734.00;0.45;235.22;0.00;0.00;0.62;;;;;24.50;1.00;;;;;;2260218;61;1995;-86
2022/09/15 11:09:43;396219.00;1.32;683.31;47508.00;0.16;82.88;;;;;24.60;1.00;;;;;;2260297;61;1119;-87
2022/09/15 11:12:29;238193.00;0.79;411.64;0.00;0.00;0.62;;;;;24.80;1.00;;;;;;2260320;61;1494;-87
2022/09/15 11:15:18;121861.00;0.41;211.29;0.00;0.00;0.62;;;;;25.00;1.00;;;;;;2260246;61;1427;-88
2022/09/15 11:17:59;257130.00;0.86;444.21;0.00;0.00;0.62;;;;;25.00;1.00;;;;;;2260284;61;1122;-86
2022/09/15 11:20:43;0.00;0.00;0.62;0.00;0.00;0.62;;;;;25.10;1.00;;;;;;2260241;61;1444;-85
2022/09/15 11:23:20;0.00;0.00;0.62;0.00;0.00;0.62;;;;;24.90;1.00;;;;;;2260177;61;1010;-85
2022/09/15 11:25:53;125995.00;0.42;218.42;55386.00;0.18;96.50;;;;;24.80;1.00;;;;;;2260217;61;1127;-88
2022/09/15 11:28:25;0.00;0.00;0.62;0.00;0.00;0.62;;;;;24.60;1.00;;;;;;2260211;61;1916;-86
2022/09/15 11:31:00;125807.00;0.42;218.10;0.00;0.00;0.62;;;;;24.30;1.00;;;;;;2260086;61;1388;-86
2022/09/15 11:33:33;193605.00;0.65;334.92;9433.00;0.03;16.97;;;;;24.30;1.00;;;;;;2260209;61;1080;-85
2022/09/15 11:36:06;0.00;0.00;0.62;0.00;0.00;0.62;;;;;24.30;1.00;;;;;;2260188;61;1137;-85
2022/09/15 11:38:46;164135.00;0.55;284.16;0.00;0.00;0.62;;;;;24.10;1.00;;;;;;2260260;61;1122;-86
2022/09/15 11:41:21;59425.00;0.20;103.48;0.00;0.00;0.62;;;;;24.40;1.00;;;;;;2260241;61;1355;-86
2022/09/15 11:43:59;165379.00;0.55;286.31;0.00;0.00;0.62;;;;;24.50;1.00;;;;;;2260262;61;1126;-87
2022/09/15 11:46:34;26035.00;0.09;45.72;0.00;0.00;0.62;;;;;24.30;1.00;;;;;;2260250;61;1104;-87
2022/09/15 11:49:07;69039.00;0.23;120.10;0.00;0.00;0.62;;;;;23.70;1.00;;;;;;2260184;61;1659;-87
2022/09/15 11:51:44;10592.00;0.04;18.97;0.00;0.00;0.62;;;;;22.60;1.20;;;;;;2260159;61;1391;-87
2022/09/15 11:54:17;0.00;0.00;0.62;0.00;0.00;0.62;;;;;22.20;1.00;;;;;;2260114;61;1063;-87
2022/09/15 11:56:47;171817.00;0.57;297.40;0.00;0.00;0.62;;;;;21.50;3.40;;;;;;2260121;61;1565;-88
2022/09/15 11:59:24;321866.00;1.07;555.51;58349.00;0.19;101.62;;;;;21.90;2.90;;;;;;2259989;61;1599;-86
2022/09/15 12:02:02;27104.00;0.09;47.57;0.00;0.00;0.62;;;;;22.20;1.80;;;;;;2260116;61;1307;-86
2022/09/15 12:04:35;153020.00;0.51;265.01;0.00;0.00;0.62;;;;;22.20;2.40;;;;;;2259857;61;1025;-88
2022/09/15 12:07:14;137847.00;0.46;238.86;0.00;0.00;0.62;;;;;22.40;1.70;;;;;;2260098;61;1910;-88
2022/09/15 12:09:42;316598.00;1.06;546.45;45513.00;0.15;79.43;;;;;22.40;1.00;;;;;;2260647;61;1507;-88
2022/09/15 12:12:15;199209.00;0.66;344.56;0.00;0.00;0.62;;;;;22.40;1.70;;;;;;2260696;61;1451;-88
2022/09/15 12:14:43;178218.00;0.59;308.42;0.00;0.00;0.62;;;;;22.40;1.30;;;;;;2271949;56;3752;-88
2022/09/15 12:19:47;1014737.00;3.38;1758.59;0.00;0.00;0.62;;;;;21.60;1.00;;;;;;2279352;40;3549;-87
2022/09/15 12:24:53;795146.00;2.65;1372.66;66355.00;0.22;115.46;;;;;20.80;4.30;;;;;;2270318;61;1511;-88
2022/09/15 12:27:21;189793.00;0.63;328.35;0.00;0.00;0.62;;;;;20.70;4.10;;;;;;2268741;61;1923;-87
2022/09/15 12:32:20;841762.00;2.81;1454.06;0.00;0.00;0.62;;;;;19.90;6.10;;;;;;2270490;61;1324;-87
2022/09/15 12:34:59;160946.00;0.54;278.67;0.00;0.00;0.62;;;;;19.80;6.00;;;;;;2268848;61;933;-86
2022/09/15 12:37:30;155126.00;0.52;268.64;0.00;0.00;0.62;;;;;19.20;6.90;;;;;;2268794;61;1146;-87
2022/09/15 12:39:59;193593.00;0.65;334.89;0.00;0.00;0.62;;;;;18.90;8.60;;;;;;2268819;61;1554;-86
2022/09/15 12:42:30;133509.00;0.45;231.38;0.00;0.00;0.62;;;;;18.80;9.40;;;;;;2268832;61;1302;-87
2022/09/15 12:45:00;41750.00;0.14;72.92;0.00;0.00;0.62;;;;;18.70;9.10;;;;;;2268808;61;1063;-87
2022/09/15 12:50:02;919567.00;3.07;1590.51;0.00;0.00;0.62;;;;;18.90;11.00;;;;;;2270713;61;1372;-88
2022/09/15 12:52:29;140052.00;0.47;242.66;0.00;0.00;0.62;;;;;18.90;8.50;;;;;;2268639;61;1565;-87
2022/09/15 12:55:03;233785.00;0.78;404.06;0.00;0.00;0.62;;;;;19.30;9.60;;;;;;2268757;61;990;-87
2022/09/15 12:57:37;400551.00;1.34;690.75;129734.00;0.43;224.87;;;;;19.80;7.50;;;;;;2268719;61;1640;-87
2022/09/15 13:00:32;155963.00;0.52;270.08;0.00;0.00;0.62;;;;;19.90;5.00;;;;;;2268753;61;1605;-87
2022/09/15 13:03:00;44387.00;0.15;77.48;0.00;0.00;0.62;;;;;20.30;3.90;;;;;;2268813;61;995;-87
2022/09/15 13:06:06;588874.00;1.96;1015.01;129967.00;0.43;225.27;;;;;20.20;2.60;;;;;;2268793;61;882;-88
2022/09/15 13:08:48;275490.00;0.92;475.78;82379.00;0.27;143.15;;;;;19.70;3.40;;;;;;2264119;61;1919;-87
2022/09/15 13:13:50;975317.00;3.25;1688.80;55619.00;0.19;96.90;;;;;19.00;5.80;;;;;;2270748;61;1395;-88
2022/09/15 13:16:26;125246856.00;417.49;79598896.00;65080.00;0.22;113.26;;;;;19.20;5.60;;;;;;2268481;61;1043;-87
2022/09/15 13:19:05;453501.00;1.51;781.80;55285.00;0.18;96.33;;;;;19.30;3.10;;;;;;2268585;61;1041;-88
2022/09/15 13:21:36;393726.00;1.31;679.02;0.00;0.00;0.62;;;;;19.30;5.60;;;;;;2268638;61;1383;-88
2022/09/15 13:29:03;476741.00;1.59;821.79;61701.00;0.21;107.42;;;;;20.10;1.70;;;;;;2269948;61;1969;-88
2022/09/15 13:34:52;884867.00;2.95;1529.56;66430.00;0.22;115.59;;;;;20.70;1.00;;;;;;2274267;61;1412;-88
2022/09/15 13:47:47;802799.00;2.68;1386.01;0.00;0.00;0.62;;;;;21.80;1.00;;;;;;2270418;61;1996;-90
2022/09/15 13:53:20;789309.00;2.63;1362.48;0.00;0.00;0.62;;;;;22.40;1.00;;;;;;2274302;61;1403;-87
2022/09/15 13:58:19;1142926.00;3.81;1987.36;28793.00;0.10;50.49;;;;;21.40;1.00;;;;;;2280286;55;3671;-86
2022/09/15 14:37:57;1563345.00;5.21;2762.89;0.00;0.00;0.62;;;;;21.70;1.00;;;;;;796981;56;3609;-88
2022/09/15 14:40:29;538083.00;1.79;927.42;17695.00;0.06;31.28;;;;;21.70;1.00;;;;;;2267517;61;1388;-89
2022/09/15 14:48:01;300511.00;1.00;518.80;0.00;0.00;0.62;;;;;21.90;1.00;;;;;;2270021;61;1968;-89
2022/09/15 14:50:29;159297.00;0.53;275.83;0.00;0.00;0.62;;;;;22.20;1.00;;;;;;2268182;61;1330;-89
2022/09/15 14:53:04;114239.00;0.38;198.14;0.00;0.00;0.62;;;;;21.90;1.00;;;;;;2268253;61;1134;-90
2022/09/15 14:55:36;127615.00;0.43;221.22;0.00;0.00;0.62;;;;;22.00;1.00;;;;;;2268209;61;1095;-88
2022/09/15 14:58:11;169071.00;0.56;292.67;0.00;0.00;0.62;;;;;22.00;1.00;;;;;;2268069;61;1048;-87
2022/09/15 15:08:09;883799.00;2.95;1527.68;0.00;0.00;0.62;;;;;23.00;1.00;;;;;;2269689;61;1972;-88
2022/09/15 15:10:37;213245.00;0.71;368.72;1554.00;0.01;3.31;;;;;23.00;1.00;;;;;;2268222;61;1328;-88
2022/09/15 15:13:10;250671.00;0.84;433.11;0.00;0.00;0.62;;;;;22.80;1.00;;;;;;2268306;61;1046;-89
2022/09/15 15:15:38;378161.00;1.26;652.26;0.00;0.00;0.62;;;;;22.60;1.00;;;;;;2268239;61;1043;-90
2022/09/15 15:23:14;787134.00;2.62;1358.69;65785.00;0.22;114.48;;;;;22.20;1.00;;;;;;2274273;61;1233;-89
2022/09/15 15:25:41;352120.00;1.17;607.51;0.00;0.00;0.62;;;;;22.00;1.00;;;;;;2272021;61;1057;-88
2022/09/15 15:28:30;85418.00;0.28;148.40;0.00;0.00;0.62;;;;;22.20;1.00;;;;;;2274183;55;3779;-88
2022/09/15 15:33:30;1003277.00;3.34;1738.28;50519.00;0.17;88.08;;;;;22.60;1.00;;;;;;2273969;61;1439;-88
2022/09/15 15:36:06;533627.00;1.78;919.74;53182.00;0.18;92.69;;;;;22.80;1.00;;;;;;2272108;61;1063;-90
2022/09/15 15:41:06;1087698.00;3.63;1888.44;60289.00;0.20;104.98;;;;;23.00;1.00;;;;;;2269590;61;1400;-89
2022/09/15 15:43:34;393410.00;1.31;678.48;75657.00;0.25;131.53;;;;;23.10;1.00;;;;;;2268686;61;988;-87
2022/09/15 15:53:29;797525.00;2.66;1376.81;120330.00;0.40;208.65;;;;;23.00;1.00;;;;;;2274870;61;1354;-88
2022/09/15 15:55:57;409607.00;1.37;706.32;68055.00;0.23;118.40;;;;;22.90;1.00;;;;;;2272826;61;921;-87
2022/09/15 15:58:25;315190.00;1.05;544.03;59850.00;0.20;104.22;;;;;23.00;1.00;;;;;;2272896;61;1290;-88
2022/09/15 16:00:55;264830.00;0.88;457.45;59238.00;0.20;103.16;;;;;23.10;1.00;;;;;;2272791;61;1318;-88
2022/09/15 16:03:23;303558.00;1.01;524.04;56637.00;0.19;98.66;;;;;23.20;1.00;;;;;;2272889;61;987;-89
2022/09/15 16:05:52;243091.00;0.81;420.07;56657.00;0.19;98.70;;;;;22.90;1.00;;;;;;2272945;61;979;-89
2022/09/15 16:08:26;295552.00;0.99;510.27;57938.00;0.19;100.91;;;;;23.10;1.00;;;;;;2272853;61;1931;-89
2022/09/15 16:10:55;346704.00;1.16;598.20;52797.00;0.18;92.02;;;;;23.00;1.00;;;;;;2272901;61;1355;-89
2022/09/15 16:13:25;258968.00;0.86;447.37;50526.00;0.17;88.10;;;;;23.10;1.00;;;;;;2272877;61;1048;-88
2022/09/15 16:18:25;467738.00;1.56;806.30;66106.00;0.22;115.03;;;;;23.00;1.00;;;;;;2270571;61;1412;-89
2022/09/15 16:20:53;350692.00;1.17;605.05;57636.00;0.19;100.39;;;;;23.00;1.00;;;;;;2268833;61;1285;-89
2022/09/15 16:23:22;538427.00;1.79;928.01;84228.00;0.28;146.34;;;;;22.90;1.00;;;;;;2268743;61;1032;-89
2022/09/15 16:25:53;255183.00;0.85;440.86;40745.00;0.14;71.18;;;;;22.60;1.00;;;;;;2268742;61;1060;-89
2022/09/15 16:28:20;133365.00;0.44;231.13;0.00;0.00;0.62;;;;;22.70;1.00;;;;;;2268782;61;2065;-89